sensor_id;sensor_type;location;lat;lon;timestamp;temperature;humidity
5868;DHT22;2960;49.142;7.768;2023-04-06T00:01:20;4.10;46.80
5868;DHT22;2960;49.142;7.768;2023-04-06T00:03:47;4.10;46.90
5868;DHT22;2960;49.142;7.768;2023-04-06T00:06:15;4.00;46.90
5868;DHT22;2960;49.142;7.768;2023-04-06T00:08:42;4.00;47.00
5868;DHT22;2960;49.142;7.768;2023-04-06T00:11:10;4.00;47.10
5868;DHT22;2960;49.142;7.768;2023-04-06T00:13:37;3.90;47.10
5868;DHT22;2960;49.142;7.768;2023-04-06T00:16:06;3.90;47.10
5868;DHT22;2960;49.142;7.768;2023-04-06T00:18:33;3.90;47.20
5868;DHT22;2960;49.142;7.768;2023-04-06T00:21:03;3.90;47.30
5868;DHT22;2960;49.142;7.768;2023-04-06T00:23:31;3.90;47.30
5868;DHT22;2960;49.142;7.768;2023-04-06T00:25:58;3.90;47.30
5868;DHT22;2960;49.142;7.768;2023-04-06T00:28:25;3.80;47.30
5868;DHT22;2960;49.142;7.768;2023-04-06T00:30:53;3.80;47.30
5868;DHT22;2960;49.142;7.768;2023-04-06T00:33:22;3.80;47.40
5868;DHT22;2960;49.142;7.768;2023-04-06T00:35:50;3.70;47.50
5868;DHT22;2960;49.142;7.768;2023-04-06T00:38:18;3.70;47.50
5868;DHT22;2960;49.142;7.768;2023-04-06T00:40:45;3.70;47.50
5868;DHT22;2960;49.142;7.768;2023-04-06T00:43:13;3.70;47.60
5868;DHT22;2960;49.142;7.768;2023-04-06T00:45:41;3.60;47.60
5868;DHT22;2960;49.142;7.768;2023-04-06T00:48:09;3.60;47.70
5868;DHT22;2960;49.142;7.768;2023-04-06T00:50:37;3.60;47.80
5868;DHT22;2960;49.142;7.768;2023-04-06T00:53:05;3.50;47.80
5868;DHT22;2960;49.142;7.768;2023-04-06T00:55:32;3.50;47.90
5868;DHT22;2960;49.142;7.768;2023-04-06T00:58:01;3.50;47.90
5868;DHT22;2960;49.142;7.768;2023-04-06T01:00:29;3.50;48.00
5868;DHT22;2960;49.142;7.768;2023-04-06T01:02:56;3.50;48.00
5868;DHT22;2960;49.142;7.768;2023-04-06T01:05:24;3.50;48.00
5868;DHT22;2960;49.142;7.768;2023-04-06T01:07:52;3.50;48.00
5868;DHT22;2960;49.142;7.768;2023-04-06T01:10:23;3.40;48.00
5868;DHT22;2960;49.142;7.768;2023-04-06T01:12:51;3.40;48.00
5868;DHT22;2960;49.142;7.768;2023-04-06T01:15:18;3.40;48.10
5868;DHT22;2960;49.142;7.768;2023-04-06T01:17:46;3.40;48.20
5868;DHT22;2960;49.142;7.768;2023-04-06T01:20:13;3.40;48.10
5868;DHT22;2960;49.142;7.768;2023-04-06T01:22:42;3.40;48.20
5868;DHT22;2960;49.142;7.768;2023-04-06T01:25:10;3.30;48.20
5868;DHT22;2960;49.142;7.768;2023-04-06T01:27:37;3.30;48.20
5868;DHT22;2960;49.142;7.768;2023-04-06T01:30:06;3.30;48.30
5868;DHT22;2960;49.142;7.768;2023-04-06T01:32:34;3.20;48.40
5868;DHT22;2960;49.142;7.768;2023-04-06T01:35:01;3.20;48.50
5868;DHT22;2960;49.142;7.768;2023-04-06T01:37:28;3.20;48.60
5868;DHT22;2960;49.142;7.768;2023-04-06T01:39:59;3.10;48.60
5868;DHT22;2960;49.142;7.768;2023-04-06T01:42:26;3.10;48.60
5868;DHT22;2960;49.142;7.768;2023-04-06T01:44:55;3.10;48.60
5868;DHT22;2960;49.142;7.768;2023-04-06T01:47:23;3.10;48.60
5868;DHT22;2960;49.142;7.768;2023-04-06T01:49:50;3.10;48.70
5868;DHT22;2960;49.142;7.768;2023-04-06T01:52:17;3.10;48.80
5868;DHT22;2960;49.142;7.768;2023-04-06T01:54:44;3.10;48.80
5868;DHT22;2960;49.142;7.768;2023-04-06T01:57:13;3.10;48.80
5868;DHT22;2960;49.142;7.768;2023-04-06T01:59:40;3.10;48.90
5868;DHT22;2960;49.142;7.768;2023-04-06T02:02:07;3.00;48.80
5868;DHT22;2960;49.142;7.768;2023-04-06T02:04:35;3.00;48.80
5868;DHT22;2960;49.142;7.768;2023-04-06T02:07:02;3.00;48.90
5868;DHT22;2960;49.142;7.768;2023-04-06T02:09:29;2.90;49.00
5868;DHT22;2960;49.142;7.768;2023-04-06T02:11:56;2.90;49.10
5868;DHT22;2960;49.142;7.768;2023-04-06T02:14:25;2.80;49.10
5868;DHT22;2960;49.142;7.768;2023-04-06T02:16:53;2.80;49.30
5868;DHT22;2960;49.142;7.768;2023-04-06T02:19:20;2.70;49.30
5868;DHT22;2960;49.142;7.768;2023-04-06T02:21:48;2.70;49.50
5868;DHT22;2960;49.142;7.768;2023-04-06T02:24:15;2.70;49.50
5868;DHT22;2960;49.142;7.768;2023-04-06T02:26:42;2.70;49.50
5868;DHT22;2960;49.142;7.768;2023-04-06T02:29:10;2.70;49.60
5868;DHT22;2960;49.142;7.768;2023-04-06T02:31:38;2.70;49.60
5868;DHT22;2960;49.142;7.768;2023-04-06T02:34:05;2.60;49.50
5868;DHT22;2960;49.142;7.768;2023-04-06T02:36:36;2.70;49.50
5868;DHT22;2960;49.142;7.768;2023-04-06T02:39:03;2.70;49.50
5868;DHT22;2960;49.142;7.768;2023-04-06T02:41:30;2.70;49.50
5868;DHT22;2960;49.142;7.768;2023-04-06T02:43:58;2.70;49.50
5868;DHT22;2960;49.142;7.768;2023-04-06T02:46:25;2.70;49.50
5868;DHT22;2960;49.142;7.768;2023-04-06T02:48:53;2.70;49.50
5868;DHT22;2960;49.142;7.768;2023-04-06T02:51:21;2.70;49.50
5868;DHT22;2960;49.142;7.768;2023-04-06T02:53:48;2.70;49.50
5868;DHT22;2960;49.142;7.768;2023-04-06T02:56:16;2.60;49.50
5868;DHT22;2960;49.142;7.768;2023-04-06T02:58:43;2.60;49.50
5868;DHT22;2960;49.142;7.768;2023-04-06T03:01:10;2.60;49.50
5868;DHT22;2960;49.142;7.768;2023-04-06T03:03:37;2.60;49.60
5868;DHT22;2960;49.142;7.768;2023-04-06T03:06:06;2.50;49.60
5868;DHT22;2960;49.142;7.768;2023-04-06T03:08:33;2.50;49.70
5868;DHT22;2960;49.142;7.768;2023-04-06T03:11:01;2.50;49.80
5868;DHT22;2960;49.142;7.768;2023-04-06T03:13:28;2.50;49.80
5868;DHT22;2960;49.142;7.768;2023-04-06T03:15:55;2.50;49.80
5868;DHT22;2960;49.142;7.768;2023-04-06T03:18:24;2.40;49.80
5868;DHT22;2960;49.142;7.768;2023-04-06T03:20:54;2.40;50.00
5868;DHT22;2960;49.142;7.768;2023-04-06T03:23:23;2.40;50.00
5868;DHT22;2960;49.142;7.768;2023-04-06T03:25:50;2.40;50.10
5868;DHT22;2960;49.142;7.768;2023-04-06T03:28:17;2.30;50.10
5868;DHT22;2960;49.142;7.768;2023-04-06T03:30:45;2.30;50.10
5868;DHT22;2960;49.142;7.768;2023-04-06T03:33:12;2.30;50.20
5868;DHT22;2960;49.142;7.768;2023-04-06T03:35:39;2.20;50.20
5868;DHT22;2960;49.142;7.768;2023-04-06T03:38:07;2.20;50.30
5868;DHT22;2960;49.142;7.768;2023-04-06T03:40:35;2.20;50.30
5868;DHT22;2960;49.142;7.768;2023-04-06T03:43:03;2.20;50.40
5868;DHT22;2960;49.142;7.768;2023-04-06T03:45:31;2.10;50.50
5868;DHT22;2960;49.142;7.768;2023-04-06T03:47:58;2.10;50.50
5868;DHT22;2960;49.142;7.768;2023-04-06T03:50:25;2.10;50.60
5868;DHT22;2960;49.142;7.768;2023-04-06T03:52:52;2.00;50.60
5868;DHT22;2960;49.142;7.768;2023-04-06T03:55:19;2.10;50.60
5868;DHT22;2960;49.142;7.768;2023-04-06T03:57:48;2.10;50.60
5868;DHT22;2960;49.142;7.768;2023-04-06T04:00:16;2.10;51.10
5868;DHT22;2960;49.142;7.768;2023-04-06T04:02:43;2.10;50.60
5868;DHT22;2960;49.142;7.768;2023-04-06T04:05:10;2.10;50.60
5868;DHT22;2960;49.142;7.768;2023-04-06T04:07:37;2.00;50.60
5868;DHT22;2960;49.142;7.768;2023-04-06T04:10:05;2.00;50.70
5868;DHT22;2960;49.142;7.768;2023-04-06T04:12:33;2.00;50.70
5868;DHT22;2960;49.142;7.768;2023-04-06T04:15:02;2.00;50.70
5868;DHT22;2960;49.142;7.768;2023-04-06T04:17:30;1.90;50.70
5868;DHT22;2960;49.142;7.768;2023-04-06T04:19:57;1.90;50.80
5868;DHT22;2960;49.142;7.768;2023-04-06T04:22:25;1.90;50.90
5868;DHT22;2960;49.142;7.768;2023-04-06T04:24:53;1.90;50.90
5868;DHT22;2960;49.142;7.768;2023-04-06T04:27:22;1.90;50.90
5868;DHT22;2960;49.142;7.768;2023-04-06T04:29:50;1.90;50.90
5868;DHT22;2960;49.142;7.768;2023-04-06T04:32:18;1.90;50.90
5868;DHT22;2960;49.142;7.768;2023-04-06T04:34:46;1.90;50.90
5868;DHT22;2960;49.142;7.768;2023-04-06T04:37:13;1.90;50.90
5868;DHT22;2960;49.142;7.768;2023-04-06T04:39:41;1.90;50.90
5868;DHT22;2960;49.142;7.768;2023-04-06T04:42:10;1.90;50.80
5868;DHT22;2960;49.142;7.768;2023-04-06T04:44:37;1.90;50.80
5868;DHT22;2960;49.142;7.768;2023-04-06T04:47:04;1.90;50.80
5868;DHT22;2960;49.142;7.768;2023-04-06T04:49:33;1.90;50.80
5868;DHT22;2960;49.142;7.768;2023-04-06T04:52:00;1.80;50.80
5868;DHT22;2960;49.142;7.768;2023-04-06T04:54:27;1.80;50.80
5868;DHT22;2960;49.142;7.768;2023-04-06T04:56:55;1.80;50.90
5868;DHT22;2960;49.142;7.768;2023-04-06T04:59:25;1.80;50.90
5868;DHT22;2960;49.142;7.768;2023-04-06T05:01:52;1.70;50.90
5868;DHT22;2960;49.142;7.768;2023-04-06T05:04:20;1.80;51.10
5868;DHT22;2960;49.142;7.768;2023-04-06T05:06:49;1.70;51.10
5868;DHT22;2960;49.142;7.768;2023-04-06T05:09:16;1.70;51.20
5868;DHT22;2960;49.142;7.768;2023-04-06T05:11:43;1.60;51.20
5868;DHT22;2960;49.142;7.768;2023-04-06T05:14:11;1.60;51.30
5868;DHT22;2960;49.142;7.768;2023-04-06T05:16:38;1.60;51.40
5868;DHT22;2960;49.142;7.768;2023-04-06T05:19:05;1.50;51.40
5868;DHT22;2960;49.142;7.768;2023-04-06T05:21:32;1.50;51.50
5868;DHT22;2960;49.142;7.768;2023-04-06T05:24:01;1.50;51.50
5868;DHT22;2960;49.142;7.768;2023-04-06T05:26:29;1.50;51.50
5868;DHT22;2960;49.142;7.768;2023-04-06T05:28:56;1.60;51.60
5868;DHT22;2960;49.142;7.768;2023-04-06T05:31:23;1.60;51.50
5868;DHT22;2960;49.142;7.768;2023-04-06T05:33:50;1.60;51.50
5868;DHT22;2960;49.142;7.768;2023-04-06T05:36:18;1.60;51.50
5868;DHT22;2960;49.142;7.768;2023-04-06T05:38:45;1.60;51.60
5868;DHT22;2960;49.142;7.768;2023-04-06T05:41:14;1.60;51.60
5868;DHT22;2960;49.142;7.768;2023-04-06T05:43:41;1.60;51.70
5868;DHT22;2960;49.142;7.768;2023-04-06T05:46:08;1.70;51.70
5868;DHT22;2960;49.142;7.768;2023-04-06T05:48:35;1.70;51.70
5868;DHT22;2960;49.142;7.768;2023-04-06T05:51:03;1.80;51.70
5868;DHT22;2960;49.142;7.768;2023-04-06T05:53:32;1.80;51.70
5868;DHT22;2960;49.142;7.768;2023-04-06T05:56:00;1.90;51.70
5868;DHT22;2960;49.142;7.768;2023-04-06T05:58:30;2.00;51.80
5868;DHT22;2960;49.142;7.768;2023-04-06T06:00:57;2.00;51.70
5868;DHT22;2960;49.142;7.768;2023-04-06T06:03:25;2.10;51.80
5868;DHT22;2960;49.142;7.768;2023-04-06T06:05:52;2.20;51.70
5868;DHT22;2960;49.142;7.768;2023-04-06T06:08:19;2.30;51.70
5868;DHT22;2960;49.142;7.768;2023-04-06T06:10:46;2.40;51.70
5868;DHT22;2960;49.142;7.768;2023-04-06T06:13:13;2.40;51.70
5868;DHT22;2960;49.142;7.768;2023-04-06T06:15:42;2.50;51.70
5868;DHT22;2960;49.142;7.768;2023-04-06T06:18:09;2.70;51.70
5868;DHT22;2960;49.142;7.768;2023-04-06T06:20:36;2.70;51.60
5868;DHT22;2960;49.142;7.768;2023-04-06T06:23:04;2.90;51.60
5868;DHT22;2960;49.142;7.768;2023-04-06T06:25:31;3.00;51.50
5868;DHT22;2960;49.142;7.768;2023-04-06T06:27:59;3.10;51.50
5868;DHT22;2960;49.142;7.768;2023-04-06T06:30:26;3.20;51.50
5868;DHT22;2960;49.142;7.768;2023-04-06T06:32:55;3.30;51.40
5868;DHT22;2960;49.142;7.768;2023-04-06T06:35:22;3.40;51.30
5868;DHT22;2960;49.142;7.768;2023-04-06T06:37:49;3.50;51.30
5868;DHT22;2960;49.142;7.768;2023-04-06T06:40:17;3.60;51.20
5868;DHT22;2960;49.142;7.768;2023-04-06T06:42:45;3.70;51.20
5868;DHT22;2960;49.142;7.768;2023-04-06T06:45:12;3.90;51.30
5868;DHT22;2960;49.142;7.768;2023-04-06T06:47:40;4.00;51.20
5868;DHT22;2960;49.142;7.768;2023-04-06T06:50:09;4.10;51.20
5868;DHT22;2960;49.142;7.768;2023-04-06T06:52:36;4.20;51.10
5868;DHT22;2960;49.142;7.768;2023-04-06T06:55:08;4.30;51.10
5868;DHT22;2960;49.142;7.768;2023-04-06T06:57:36;4.40;51.10
5868;DHT22;2960;49.142;7.768;2023-04-06T07:00:05;4.50;51.20
5868;DHT22;2960;49.142;7.768;2023-04-06T07:02:34;4.60;51.10
5868;DHT22;2960;49.142;7.768;2023-04-06T07:05:02;4.70;51.00
5868;DHT22;2960;49.142;7.768;2023-04-06T07:07:32;4.90;51.00
5868;DHT22;2960;49.142;7.768;2023-04-06T07:09:59;5.00;51.00
5868;DHT22;2960;49.142;7.768;2023-04-06T07:12:27;5.10;50.90
5868;DHT22;2960;49.142;7.768;2023-04-06T07:14:54;5.30;50.90
5868;DHT22;2960;49.142;7.768;2023-04-06T07:17:22;5.40;50.80
5868;DHT22;2960;49.142;7.768;2023-04-06T07:19:49;5.50;50.70
5868;DHT22;2960;49.142;7.768;2023-04-06T07:22:16;5.60;50.60
5868;DHT22;2960;49.142;7.768;2023-04-06T07:24:45;5.80;50.60
5868;DHT22;2960;49.142;7.768;2023-04-06T07:27:12;5.90;50.50
5868;DHT22;2960;49.142;7.768;2023-04-06T07:29:39;6.00;50.50
5868;DHT22;2960;49.142;7.768;2023-04-06T07:32:07;6.10;50.40
5868;DHT22;2960;49.142;7.768;2023-04-06T07:34:35;6.20;50.30
5868;DHT22;2960;49.142;7.768;2023-04-06T07:37:02;6.40;50.40
5868;DHT22;2960;49.142;7.768;2023-04-06T07:39:31;6.50;50.30
5868;DHT22;2960;49.142;7.768;2023-04-06T07:41:59;6.60;50.30
5868;DHT22;2960;49.142;7.768;2023-04-06T07:44:26;6.80;50.30
5868;DHT22;2960;49.142;7.768;2023-04-06T07:46:54;6.90;50.20
5868;DHT22;2960;49.142;7.768;2023-04-06T07:49:21;7.00;50.10
5868;DHT22;2960;49.142;7.768;2023-04-06T07:51:48;7.20;50.00
5868;DHT22;2960;49.142;7.768;2023-04-06T07:54:16;7.30;49.90
5868;DHT22;2960;49.142;7.768;2023-04-06T07:56:43;7.40;49.80
5868;DHT22;2960;49.142;7.768;2023-04-06T07:59:11;7.60;49.70
5868;DHT22;2960;49.142;7.768;2023-04-06T08:01:39;7.70;49.60
5868;DHT22;2960;49.142;7.768;2023-04-06T08:04:06;7.90;49.70
5868;DHT22;2960;49.142;7.768;2023-04-06T08:06:33;8.00;49.70
5868;DHT22;2960;49.142;7.768;2023-04-06T08:09:01;8.10;49.60
5868;DHT22;2960;49.142;7.768;2023-04-06T08:11:29;8.30;49.60
5868;DHT22;2960;49.142;7.768;2023-04-06T08:13:56;8.40;49.40
5868;DHT22;2960;49.142;7.768;2023-04-06T08:16:25;8.60;49.40
5868;DHT22;2960;49.142;7.768;2023-04-06T08:18:52;8.70;49.20
5868;DHT22;2960;49.142;7.768;2023-04-06T08:21:19;8.80;49.00
5868;DHT22;2960;49.142;7.768;2023-04-06T08:23:47;8.90;48.90
5868;DHT22;2960;49.142;7.768;2023-04-06T08:26:14;9.10;48.90
5868;DHT22;2960;49.142;7.768;2023-04-06T08:28:41;9.20;48.80
5868;DHT22;2960;49.142;7.768;2023-04-06T08:31:08;9.40;48.80
5868;DHT22;2960;49.142;7.768;2023-04-06T08:33:37;9.50;48.60
5868;DHT22;2960;49.142;7.768;2023-04-06T08:36:09;9.70;48.50
5868;DHT22;2960;49.142;7.768;2023-04-06T08:38:38;9.90;48.40
5868;DHT22;2960;49.142;7.768;2023-04-06T08:41:08;10.00;47.40
5868;DHT22;2960;49.142;7.768;2023-04-06T08:43:41;10.20;47.30
5868;DHT22;2960;49.142;7.768;2023-04-06T08:46:11;10.40;47.20
5868;DHT22;2960;49.142;7.768;2023-04-06T08:48:41;10.50;47.10
5868;DHT22;2960;49.142;7.768;2023-04-06T08:51:09;10.70;46.90
5868;DHT22;2960;49.142;7.768;2023-04-06T08:53:37;10.90;46.80
5868;DHT22;2960;49.142;7.768;2023-04-06T08:56:05;11.10;47.20
5868;DHT22;2960;49.142;7.768;2023-04-06T08:58:35;11.30;46.50
5868;DHT22;2960;49.142;7.768;2023-04-06T09:01:06;11.40;46.30
5868;DHT22;2960;49.142;7.768;2023-04-06T09:03:38;11.60;45.60
5868;DHT22;2960;49.142;7.768;2023-04-06T09:06:07;11.80;45.10
5868;DHT22;2960;49.142;7.768;2023-04-06T09:08:38;11.90;44.40
5868;DHT22;2960;49.142;7.768;2023-04-06T09:11:07;12.00;43.90
5868;DHT22;2960;49.142;7.768;2023-04-06T09:13:45;12.10;43.50
5868;DHT22;2960;49.142;7.768;2023-04-06T09:16:13;12.20;43.00
5868;DHT22;2960;49.142;7.768;2023-04-06T09:18:42;12.20;42.30
5868;DHT22;2960;49.142;7.768;2023-04-06T09:21:10;12.30;42.00
5868;DHT22;2960;49.142;7.768;2023-04-06T09:23:38;12.30;42.00
5868;DHT22;2960;49.142;7.768;2023-04-06T09:26:08;12.40;41.60
5868;DHT22;2960;49.142;7.768;2023-04-06T09:28:44;12.40;41.10
5868;DHT22;2960;49.142;7.768;2023-04-06T09:31:13;12.50;41.00
5868;DHT22;2960;49.142;7.768;2023-04-06T09:33:43;12.50;40.50
5868;DHT22;2960;49.142;7.768;2023-04-06T09:36:11;12.50;40.30
5868;DHT22;2960;49.142;7.768;2023-04-06T09:38:52;12.60;40.20
5868;DHT22;2960;49.142;7.768;2023-04-06T09:41:22;12.60;39.70
5868;DHT22;2960;49.142;7.768;2023-04-06T09:44:01;12.70;39.80
5868;DHT22;2960;49.142;7.768;2023-04-06T09:46:31;12.80;39.90
5868;DHT22;2960;49.142;7.768;2023-04-06T09:49:02;12.90;39.60
5868;DHT22;2960;49.142;7.768;2023-04-06T09:51:31;13.10;39.90
5868;DHT22;2960;49.142;7.768;2023-04-06T09:54:03;13.20;39.90
5868;DHT22;2960;49.142;7.768;2023-04-06T09:56:43;13.40;39.80
5868;DHT22;2960;49.142;7.768;2023-04-06T09:59:14;13.60;39.70
5868;DHT22;2960;49.142;7.768;2023-04-06T10:01:48;13.80;39.40
5868;DHT22;2960;49.142;7.768;2023-04-06T10:04:27;14.00;39.20
5868;DHT22;2960;49.142;7.768;2023-04-06T10:06:59;14.20;38.80
5868;DHT22;2960;49.142;7.768;2023-04-06T10:09:29;14.30;38.50
5868;DHT22;2960;49.142;7.768;2023-04-06T10:12:02;14.40;38.40
5868;DHT22;2960;49.142;7.768;2023-04-06T10:14:31;14.50;37.80
5868;DHT22;2960;49.142;7.768;2023-04-06T10:17:01;14.60;37.90
5868;DHT22;2960;49.142;7.768;2023-04-06T10:19:37;14.70;37.80
5868;DHT22;2960;49.142;7.768;2023-04-06T10:22:12;14.80;37.60
5868;DHT22;2960;49.142;7.768;2023-04-06T10:24:48;14.90;37.10
5868;DHT22;2960;49.142;7.768;2023-04-06T10:27:15;14.90;37.00
5868;DHT22;2960;49.142;7.768;2023-04-06T10:29:43;15.00;36.90
5868;DHT22;2960;49.142;7.768;2023-04-06T10:32:12;15.00;36.80
5868;DHT22;2960;49.142;7.768;2023-04-06T10:34:40;14.90;36.10
5868;DHT22;2960;49.142;7.768;2023-04-06T10:37:15;14.90;36.00
5868;DHT22;2960;49.142;7.768;2023-04-06T10:39:48;14.80;36.10
5868;DHT22;2960;49.142;7.768;2023-04-06T10:42:24;14.80;36.20
5868;DHT22;2960;49.142;7.768;2023-04-06T10:44:51;14.70;36.00
5868;DHT22;2960;49.142;7.768;2023-04-06T10:47:19;14.70;35.90
5868;DHT22;2960;49.142;7.768;2023-04-06T10:49:47;14.60;36.40
5868;DHT22;2960;49.142;7.768;2023-04-06T10:52:14;14.60;36.00
5868;DHT22;2960;49.142;7.768;2023-04-06T10:54:43;14.60;36.10
5868;DHT22;2960;49.142;7.768;2023-04-06T10:57:10;14.70;36.30
5868;DHT22;2960;49.142;7.768;2023-04-06T10:59:42;14.80;36.30
5868;DHT22;2960;49.142;7.768;2023-04-06T11:02:19;14.80;36.20
5868;DHT22;2960;49.142;7.768;2023-04-06T11:04:58;14.90;36.30
5868;DHT22;2960;49.142;7.768;2023-04-06T11:07:26;14.90;36.10
5868;DHT22;2960;49.142;7.768;2023-04-06T11:09:56;15.00;35.70
5868;DHT22;2960;49.142;7.768;2023-04-06T11:12:24;14.90;34.90
5868;DHT22;2960;49.142;7.768;2023-04-06T11:14:55;14.90;34.70
5868;DHT22;2960;49.142;7.768;2023-04-06T11:17:28;14.90;34.80
5868;DHT22;2960;49.142;7.768;2023-04-06T11:19:55;14.90;34.80
5868;DHT22;2960;49.142;7.768;2023-04-06T11:22:24;15.00;34.30
5868;DHT22;2960;49.142;7.768;2023-04-06T11:24:52;14.90;34.10
5868;DHT22;2960;49.142;7.768;2023-04-06T11:27:20;14.90;34.20
5868;DHT22;2960;49.142;7.768;2023-04-06T11:29:47;14.90;34.50
5868;DHT22;2960;49.142;7.768;2023-04-06T11:32:21;15.00;34.60
5868;DHT22;2960;49.142;7.768;2023-04-06T11:34:49;15.00;34.20
5868;DHT22;2960;49.142;7.768;2023-04-06T11:37:16;15.00;34.20
5868;DHT22;2960;49.142;7.768;2023-04-06T11:39:48;15.10;34.50
5868;DHT22;2960;49.142;7.768;2023-04-06T11:42:24;15.10;34.20
5868;DHT22;2960;49.142;7.768;2023-04-06T11:44:54;15.20;34.40
5868;DHT22;2960;49.142;7.768;2023-04-06T11:47:28;15.20;34.10
5868;DHT22;2960;49.142;7.768;2023-04-06T11:49:56;15.20;33.80
5868;DHT22;2960;49.142;7.768;2023-04-06T11:52:31;15.20;33.70
5868;DHT22;2960;49.142;7.768;2023-04-06T11:55:10;15.20;33.60
5868;DHT22;2960;49.142;7.768;2023-04-06T11:57:39;15.20;33.70
5868;DHT22;2960;49.142;7.768;2023-04-06T12:00:08;15.20;33.80
5868;DHT22;2960;49.142;7.768;2023-04-06T12:02:36;15.20;33.90
5868;DHT22;2960;49.142;7.768;2023-04-06T12:05:05;15.20;34.00
5868;DHT22;2960;49.142;7.768;2023-04-06T12:07:33;15.30;34.00
5868;DHT22;2960;49.142;7.768;2023-04-06T12:10:03;15.30;33.90
5868;DHT22;2960;49.142;7.768;2023-04-06T12:12:31;15.30;33.90
5868;DHT22;2960;49.142;7.768;2023-04-06T12:14:58;15.40;33.90
5868;DHT22;2960;49.142;7.768;2023-04-06T12:17:26;15.40;33.50
5868;DHT22;2960;49.142;7.768;2023-04-06T12:19:53;15.40;33.50
5868;DHT22;2960;49.142;7.768;2023-04-06T12:22:21;15.30;33.50
5868;DHT22;2960;49.142;7.768;2023-04-06T12:24:48;15.30;33.50
5868;DHT22;2960;49.142;7.768;2023-04-06T12:27:17;15.20;33.40
5868;DHT22;2960;49.142;7.768;2023-04-06T12:29:44;15.20;33.70
5868;DHT22;2960;49.142;7.768;2023-04-06T12:32:11;15.20;33.80
5868;DHT22;2960;49.142;7.768;2023-04-06T12:34:38;15.20;33.80
5868;DHT22;2960;49.142;7.768;2023-04-06T12:37:06;15.20;33.90
5868;DHT22;2960;49.142;7.768;2023-04-06T12:39:33;15.30;33.90
5868;DHT22;2960;49.142;7.768;2023-04-06T12:42:01;15.30;33.90
5868;DHT22;2960;49.142;7.768;2023-04-06T12:44:30;15.30;33.60
5868;DHT22;2960;49.142;7.768;2023-04-06T12:46:57;15.20;33.60
5868;DHT22;2960;49.142;7.768;2023-04-06T12:49:25;15.20;33.80
5868;DHT22;2960;49.142;7.768;2023-04-06T12:51:53;15.20;33.90
5868;DHT22;2960;49.142;7.768;2023-04-06T12:54:20;15.10;33.70
5868;DHT22;2960;49.142;7.768;2023-04-06T12:56:48;15.10;33.70
5868;DHT22;2960;49.142;7.768;2023-04-06T12:59:15;15.10;33.70
5868;DHT22;2960;49.142;7.768;2023-04-06T13:01:44;15.00;33.60
5868;DHT22;2960;49.142;7.768;2023-04-06T13:04:11;15.00;33.80
5868;DHT22;2960;49.142;7.768;2023-04-06T13:06:39;14.90;33.90
5868;DHT22;2960;49.142;7.768;2023-04-06T13:09:06;14.90;34.00
5868;DHT22;2960;49.142;7.768;2023-04-06T13:11:33;14.90;34.00
5868;DHT22;2960;49.142;7.768;2023-04-06T13:14:01;14.90;34.10
5868;DHT22;2960;49.142;7.768;2023-04-06T13:16:28;14.90;34.00
5868;DHT22;2960;49.142;7.768;2023-04-06T13:18:57;14.90;34.10
5868;DHT22;2960;49.142;7.768;2023-04-06T13:21:24;14.90;34.00
5868;DHT22;2960;49.142;7.768;2023-04-06T13:23:52;14.90;34.00
5868;DHT22;2960;49.142;7.768;2023-04-06T13:26:21;14.90;34.10
5868;DHT22;2960;49.142;7.768;2023-04-06T13:28:48;14.80;34.00
5868;DHT22;2960;49.142;7.768;2023-04-06T13:31:16;14.80;34.00
5868;DHT22;2960;49.142;7.768;2023-04-06T13:33:43;14.70;34.00
5868;DHT22;2960;49.142;7.768;2023-04-06T13:36:11;14.60;34.10
5868;DHT22;2960;49.142;7.768;2023-04-06T13:38:39;14.60;34.20
5868;DHT22;2960;49.142;7.768;2023-04-06T13:41:06;14.60;34.10
5868;DHT22;2960;49.142;7.768;2023-04-06T13:43:34;14.50;34.10
5868;DHT22;2960;49.142;7.768;2023-04-06T13:46:01;14.40;34.20
5868;DHT22;2960;49.142;7.768;2023-04-06T13:48:28;14.40;34.30
5868;DHT22;2960;49.142;7.768;2023-04-06T13:51:00;14.30;34.30
5868;DHT22;2960;49.142;7.768;2023-04-06T13:53:36;14.30;35.10
5868;DHT22;2960;49.142;7.768;2023-04-06T13:56:03;14.20;34.50
5868;DHT22;2960;49.142;7.768;2023-04-06T13:58:30;14.20;34.70
5868;DHT22;2960;49.142;7.768;2023-04-06T14:01:02;14.30;34.80
5868;DHT22;2960;49.142;7.768;2023-04-06T14:03:29;14.30;34.80
5868;DHT22;2960;49.142;7.768;2023-04-06T14:05:57;14.30;34.80
5868;DHT22;2960;49.142;7.768;2023-04-06T14:08:24;14.30;34.90
5868;DHT22;2960;49.142;7.768;2023-04-06T14:10:52;14.30;34.90
5868;DHT22;2960;49.142;7.768;2023-04-06T14:13:20;14.30;35.00
5868;DHT22;2960;49.142;7.768;2023-04-06T14:15:53;14.40;35.10
5868;DHT22;2960;49.142;7.768;2023-04-06T14:18:21;14.40;35.10
5868;DHT22;2960;49.142;7.768;2023-04-06T14:20:54;14.40;35.00
5868;DHT22;2960;49.142;7.768;2023-04-06T14:23:21;14.40;35.10
5868;DHT22;2960;49.142;7.768;2023-04-06T14:26:00;14.30;35.10
5868;DHT22;2960;49.142;7.768;2023-04-06T14:28:29;14.30;35.10
5868;DHT22;2960;49.142;7.768;2023-04-06T14:30:56;14.30;35.70
5868;DHT22;2960;49.142;7.768;2023-04-06T14:33:23;14.20;35.20
5868;DHT22;2960;49.142;7.768;2023-04-06T14:35:51;14.20;35.30
5868;DHT22;2960;49.142;7.768;2023-04-06T14:38:18;14.20;35.20
5868;DHT22;2960;49.142;7.768;2023-04-06T14:40:45;14.20;35.30
5868;DHT22;2960;49.142;7.768;2023-04-06T14:43:14;14.20;35.40
5868;DHT22;2960;49.142;7.768;2023-04-06T14:45:41;14.10;35.30
5868;DHT22;2960;49.142;7.768;2023-04-06T14:48:08;14.20;35.50
5868;DHT22;2960;49.142;7.768;2023-04-06T14:50:38;14.20;35.60
5868;DHT22;2960;49.142;7.768;2023-04-06T14:53:05;14.20;35.70
5868;DHT22;2960;49.142;7.768;2023-04-06T14:55:32;14.10;35.60
5868;DHT22;2960;49.142;7.768;2023-04-06T14:57:59;14.10;35.70
5868;DHT22;2960;49.142;7.768;2023-04-06T15:00:28;14.10;35.80
5868;DHT22;2960;49.142;7.768;2023-04-06T15:02:56;14.10;35.80
5868;DHT22;2960;49.142;7.768;2023-04-06T15:05:23;14.10;35.90
5868;DHT22;2960;49.142;7.768;2023-04-06T15:07:50;14.10;36.00
5868;DHT22;2960;49.142;7.768;2023-04-06T15:10:18;14.10;36.00
5868;DHT22;2960;49.142;7.768;2023-04-06T15:12:45;14.00;36.00
5868;DHT22;2960;49.142;7.768;2023-04-06T15:15:12;14.00;36.10
5868;DHT22;2960;49.142;7.768;2023-04-06T15:17:40;13.90;36.20
5868;DHT22;2960;49.142;7.768;2023-04-06T15:20:08;13.80;36.30
5868;DHT22;2960;49.142;7.768;2023-04-06T15:22:35;13.80;36.60
5868;DHT22;2960;49.142;7.768;2023-04-06T15:25:03;13.70;36.80
5868;DHT22;2960;49.142;7.768;2023-04-06T15:27:31;13.70;37.10
5868;DHT22;2960;49.142;7.768;2023-04-06T15:29:58;13.60;37.30
5868;DHT22;2960;49.142;7.768;2023-04-06T15:32:25;13.60;37.40
5868;DHT22;2960;49.142;7.768;2023-04-06T15:34:56;13.60;38.20
5868;DHT22;2960;49.142;7.768;2023-04-06T15:37:24;13.60;37.80
5868;DHT22;2960;49.142;7.768;2023-04-06T15:39:51;13.50;37.90
5868;DHT22;2960;49.142;7.768;2023-04-06T15:42:18;13.50;38.00
5868;DHT22;2960;49.142;7.768;2023-04-06T15:44:45;13.50;38.20
5868;DHT22;2960;49.142;7.768;2023-04-06T15:47:12;13.50;38.40
5868;DHT22;2960;49.142;7.768;2023-04-06T15:49:39;13.40;38.50
5868;DHT22;2960;49.142;7.768;2023-04-06T15:52:07;13.40;38.80
5868;DHT22;2960;49.142;7.768;2023-04-06T15:54:34;13.30;39.00
5868;DHT22;2960;49.142;7.768;2023-04-06T15:57:06;13.20;39.20
5868;DHT22;2960;49.142;7.768;2023-04-06T15:59:33;13.20;39.50
5868;DHT22;2960;49.142;7.768;2023-04-06T16:02:00;13.10;39.70
5868;DHT22;2960;49.142;7.768;2023-04-06T16:04:27;13.00;40.00
5868;DHT22;2960;49.142;7.768;2023-04-06T16:06:54;13.00;40.50
5868;DHT22;2960;49.142;7.768;2023-04-06T16:09:22;12.90;40.80
5868;DHT22;2960;49.142;7.768;2023-04-06T16:11:49;12.80;41.40
5868;DHT22;2960;49.142;7.768;2023-04-06T16:14:16;12.70;42.50
5868;DHT22;2960;49.142;7.768;2023-04-06T16:16:44;12.70;42.40